createdAt,value
2018-11-03T00:00:39.498Z,96217.25
2018-11-03T00:03:08.725Z,96222.40
2018-11-03T00:05:37.931Z,96225.08
2018-11-03T00:08:07.101Z,96225.08
2018-11-03T00:10:36.643Z,96229.31
2018-11-03T00:13:06.181Z,96219.11
2018-11-03T00:15:35.723Z,96218.91
2018-11-03T00:18:05.044Z,96218.59
2018-11-03T00:20:34.620Z,96221.58
2018-11-03T00:23:04.199Z,96225.08
2018-11-03T00:25:33.297Z,96214.27
2018-11-03T00:28:02.533Z,96213.23
2018-11-03T00:30:31.620Z,96213.55
2018-11-03T00:33:00.802Z,96209.22
2018-11-03T00:35:29.917Z,96208.39
2018-11-03T00:37:59.238Z,96211.90
2018-11-03T00:40:28.457Z,96215.09
2018-11-03T00:42:57.737Z,96204.89
2018-11-03T00:45:27.056Z,96211.59
2018-11-03T00:47:56.261Z,96207.57
2018-11-03T00:50:25.553Z,96204.16
2018-11-03T00:52:55.705Z,96200.97
2018-11-03T00:55:24.930Z,96198.20
2018-11-03T00:57:54.062Z,96203.65
2018-11-03T01:00:23.253Z,96196.39
2018-11-03T01:02:52.262Z,96197.19
2018-11-03T01:05:21.420Z,96196.09
2018-11-03T01:07:50.540Z,96193.94
2018-11-03T01:10:19.845Z,96184.68
2018-11-03T01:12:48.949Z,96182.58
2018-11-03T01:15:18.625Z,96188.70
2018-11-03T01:17:47.805Z,96188.11
2018-11-03T01:20:17.905Z,96190.92
2018-11-03T01:22:47.099Z,96191.31
2018-11-03T01:25:16.290Z,96185.34
2018-11-03T01:27:45.563Z,96194.50
2018-11-03T01:30:15.978Z,96191.95
2018-11-03T01:32:45.177Z,96192.04
2018-11-03T01:35:14.390Z,96187.29
2018-11-03T01:37:44.002Z,96189.66
2018-11-03T01:40:14.259Z,96182.97
2018-11-03T01:42:43.447Z,96180.41
2018-11-03T01:45:12.709Z,96180.59
2018-11-03T01:47:41.909Z,96183.36
2018-11-03T01:50:12.171Z,96176.33
2018-11-03T01:52:42.022Z,96180.29
2018-11-03T01:55:11.121Z,96181.11
2018-11-03T01:57:40.334Z,96178.95
2018-11-03T02:00:10.443Z,96181.69
2018-11-03T02:02:39.754Z,96177.48
2018-11-03T02:05:09.523Z,96177.88
2018-11-03T02:07:38.833Z,96175.97
2018-11-03T02:10:09.263Z,96174.81
2018-11-03T02:12:38.589Z,96176.15
2018-11-03T02:15:07.777Z,96178.64
2018-11-03T02:17:37.305Z,96180.73
2018-11-03T02:20:07.437Z,96181.20
2018-11-03T02:22:36.843Z,96182.54
2018-11-03T02:25:06.003Z,96178.00
2018-11-03T02:27:35.239Z,96180.98
2018-11-03T02:30:04.452Z,96176.97
2018-11-03T02:32:33.567Z,96171.88
2018-11-03T02:35:02.884Z,96171.70
2018-11-03T02:37:32.067Z,96176.27
2018-11-03T02:40:01.218Z,96168.20
2018-11-03T02:42:30.454Z,96175.97
2018-11-03T02:44:59.636Z,96176.66
2018-11-03T02:47:28.918Z,96176.66
2018-11-03T02:49:58.125Z,96170.28
2018-11-03T02:52:27.254Z,96161.94
2018-11-03T02:54:56.361Z,96160.38
2018-11-03T02:57:25.600Z,96159.44
2018-11-03T02:59:54.733Z,96163.27
2018-11-03T03:02:24.127Z,96168.11
2018-11-03T03:04:53.370Z,96164.41
2018-11-03T03:07:22.519Z,96165.13
2018-11-03T03:09:51.649Z,96161.30
2018-11-03T03:12:20.795Z,96165.52
2018-11-03T03:14:49.891Z,96160.59
2018-11-03T03:17:19.037Z,96157.92
2018-11-03T03:19:48.206Z,96160.27
2018-11-03T03:22:17.776Z,96163.80
2018-11-03T03:24:46.919Z,96168.51
2018-11-03T03:27:16.141Z,96170.88
2018-11-03T03:29:45.473Z,96164.55
2018-11-03T03:32:14.587Z,96163.15
2018-11-03T03:34:43.728Z,96162.94
2018-11-03T03:37:13.009Z,96160.05
2018-11-03T03:39:42.115Z,96157.98
2018-11-03T03:42:11.205Z,96155.30
2018-11-03T03:44:40.397Z,96162.20
2018-11-03T03:47:09.488Z,96156.64
2018-11-03T03:49:38.606Z,96148.60
2018-11-03T03:52:07.705Z,96152.62
2018-11-03T03:54:36.966Z,96160.47
2018-11-03T03:57:06.214Z,96163.03
2018-11-03T03:59:35.893Z,96159.01
2018-11-03T04:02:04.997Z,96152.01
2018-11-03T04:04:34.059Z,96160.74
2018-11-03T04:07:03.313Z,96156.72
2018-11-03T04:09:32.469Z,96159.41
2018-11-03T04:12:01.591Z,96157.76
2018-11-03T04:14:30.637Z,96151.49
2018-11-03T04:16:59.786Z,96154.05
2018-11-03T04:19:28.953Z,96149.81
2018-11-03T04:21:58.141Z,96154.05
2018-11-03T04:24:27.282Z,96147.05
2018-11-03T04:26:56.826Z,96157.55
2018-11-03T04:29:26.049Z,96154.35
2018-11-03T04:31:55.185Z,96160.09
2018-11-03T04:34:24.310Z,96155.56
2018-11-03T04:36:53.510Z,96156.81
2018-11-03T04:39:22.685Z,96164.76
2018-11-03T04:41:51.868Z,96154.05
2018-11-03T04:44:21.106Z,96153.41
2018-11-03T04:46:50.391Z,96159.41
2018-11-03T04:49:19.602Z,96156.08
2018-11-03T04:51:49.070Z,96159.80
2018-11-03T04:54:18.291Z,96160.44
2018-11-03T04:56:47.480Z,96152.28
2018-11-03T04:59:16.554Z,96154.62
2018-11-03T05:01:45.973Z,96163.17
2018-11-03T05:04:15.104Z,96163.81
2018-11-03T05:06:44.601Z,96157.81
2018-11-03T05:09:13.952Z,96159.97
2018-11-03T05:11:43.240Z,96157.12
2018-11-03T05:14:12.371Z,96166.48
2018-11-03T05:16:41.445Z,96163.50
2018-11-03T05:19:10.594Z,96164.84
2018-11-03T05:21:39.759Z,96165.33
2018-11-03T05:24:08.854Z,96164.84
2018-11-03T05:26:37.960Z,96167.52
2018-11-03T05:29:07.439Z,96171.33
2018-11-03T05:31:36.556Z,96168.01
2018-11-03T05:34:05.812Z,96171.72
2018-11-03T05:36:35.471Z,96178.72
2018-11-03T05:39:06.584Z,96179.36
2018-11-03T05:41:35.718Z,96180.18
2018-11-03T05:44:04.915Z,96188.94
2018-11-03T05:46:34.127Z,96192.95
2018-11-03T05:49:03.173Z,96188.42
2018-11-03T05:51:32.281Z,96196.98
2018-11-03T05:54:01.416Z,96186.31
2018-11-03T05:56:30.957Z,96203.02
2018-11-03T05:59:00.268Z,96196.64
2018-11-03T06:01:29.297Z,96199.83
2018-11-03T06:03:58.440Z,96203.98
2018-11-03T06:06:27.559Z,96202.33
2018-11-03T06:08:56.741Z,96201.30
2018-11-03T06:11:25.765Z,96203.46
2018-11-03T06:13:54.983Z,96205.63
2018-11-03T06:16:24.064Z,96199.44
2018-11-03T06:18:53.274Z,96209.84
2018-11-03T06:21:22.361Z,96214.17
2018-11-03T06:23:51.970Z,96218.70
2018-11-03T06:26:21.306Z,96220.34
2018-11-03T06:28:50.489Z,96218.19
2018-11-03T06:31:19.851Z,96217.36
2018-11-03T06:33:48.967Z,96215.38
2018-11-03T06:36:18.080Z,96215.52
2018-11-03T06:38:47.233Z,96216.33
2018-11-03T06:41:16.702Z,96218.40
2018-11-03T06:43:46.219Z,96219.73
2018-11-03T06:46:15.386Z,96221.56
2018-11-03T06:48:44.694Z,96223.42
2018-11-03T06:51:13.761Z,96217.36
2018-11-03T06:53:43.250Z,96223.42
2018-11-03T06:56:12.389Z,96228.38
2018-11-03T06:58:41.849Z,96228.08
2018-11-03T07:01:11.117Z,96225.09
2018-11-03T07:03:40.555Z,96224.58
2018-11-03T07:06:09.811Z,96224.36
2018-11-03T07:08:39.409Z,96229.72
2018-11-03T07:11:08.534Z,96224.70
2018-11-03T07:13:38.185Z,96220.34
2018-11-03T07:16:07.795Z,96219.34
2018-11-03T07:18:37.001Z,96220.86
2018-11-03T07:21:06.370Z,96218.40
2018-11-03T07:23:35.592Z,96217.67
2018-11-03T07:26:05.117Z,96219.66
2018-11-03T07:28:34.549Z,96226.52
2018-11-03T07:31:03.758Z,96223.02
2018-11-03T07:33:32.857Z,96219.34
2018-11-03T07:36:02.573Z,96212.14
2018-11-03T07:38:31.818Z,96214.81
2018-11-03T07:41:00.995Z,96219.95
2018-11-03T07:43:30.525Z,96215.94
2018-11-03T07:45:59.650Z,96207.61
2018-11-03T07:48:28.846Z,96209.98
2018-11-03T07:50:57.988Z,96212.14
2018-11-03T07:53:27.325Z,96212.95
2018-11-03T07:55:56.493Z,96214.30
2018-11-03T07:58:25.662Z,96211.92
2018-11-03T08:00:54.847Z,96212.14
2018-11-03T08:03:24.019Z,96217.28
2018-11-03T08:05:53.137Z,96216.97
2018-11-03T08:08:22.356Z,96214.42
2018-11-03T08:10:51.538Z,96201.42
2018-11-03T08:13:21.216Z,96195.03
2018-11-03T08:15:50.433Z,96194.21
2018-11-03T08:18:19.659Z,96185.14
2018-11-03T08:20:48.836Z,96188.03
2018-11-03T08:23:18.014Z,96185.36
2018-11-03T08:25:47.129Z,96184.53
2018-11-03T08:28:16.630Z,96187.00
2018-11-03T08:30:45.800Z,96176.50
2018-11-03T08:33:14.925Z,96181.00
2018-11-03T08:35:44.026Z,96175.34
2018-11-03T08:38:13.217Z,96175.16
2018-11-03T08:40:42.320Z,96169.73
2018-11-03T08:43:11.926Z,96169.04
2018-11-03T08:45:41.055Z,96174.09
2018-11-03T08:48:10.306Z,96173.88
2018-11-03T08:50:39.531Z,96167.58
2018-11-03T08:53:08.576Z,96165.41
2018-11-03T08:55:37.849Z,96156.05
2018-11-03T08:58:07.793Z,96162.16
2018-11-03T09:00:36.927Z,96149.78
2018-11-03T09:03:06.057Z,96147.44
2018-11-03T09:05:35.114Z,96147.05
2018-11-03T09:08:04.209Z,96141.30
2018-11-03T09:10:33.295Z,96142.64
2018-11-03T09:13:02.422Z,96137.89
2018-11-03T09:15:31.525Z,96139.88
2018-11-03T09:18:00.705Z,96138.83
2018-11-03T09:20:29.865Z,96132.99
2018-11-03T09:22:59.038Z,96133.48
2018-11-03T09:25:28.173Z,96123.41
2018-11-03T09:27:57.711Z,96122.41
2018-11-03T09:30:26.826Z,96117.34
2018-11-03T09:32:56.031Z,96108.92
2018-11-03T09:35:25.345Z,96109.22
2018-11-03T09:37:54.615Z,96102.98
2018-11-03T09:40:23.717Z,96102.12
2018-11-03T09:42:53.017Z,96104.81
2018-11-03T09:45:22.120Z,96107.82
2018-11-03T09:47:51.363Z,96108.25
2018-11-03T09:50:20.599Z,96106.60
2018-11-03T09:52:49.713Z,96096.89
2018-11-03T09:55:19.589Z,96101.55
2018-11-03T09:57:48.725Z,96088.45
2018-11-03T10:00:19.385Z,96082.91
2018-11-03T10:02:48.567Z,96076.13
2018-11-03T10:05:17.861Z,96076.34
2018-11-03T10:07:46.966Z,96072.32
2018-11-03T10:10:17.230Z,96064.80
2018-11-03T10:12:46.363Z,96068.42
2018-11-03T10:15:16.845Z,96060.90
2018-11-03T10:17:46.448Z,96060.05
2018-11-03T10:20:15.879Z,96050.37
2018-11-03T10:22:44.993Z,96048.62
2018-11-03T10:25:17.244Z,96048.11
2018-11-03T10:27:46.992Z,96038.73
2018-11-03T10:30:16.963Z,96037.20
2018-11-03T10:32:46.562Z,96026.67
2018-11-03T10:35:15.988Z,96025.15
2018-11-03T10:37:45.761Z,96022.14
2018-11-03T10:40:16.214Z,96017.78
2018-11-03T10:42:45.570Z,96013.91
2018-11-03T10:45:15.857Z,96008.81
2018-11-03T10:47:45.289Z,96007.36
2018-11-03T10:50:16.139Z,95998.50
2018-11-03T10:52:46.073Z,95994.79
2018-11-03T10:55:17.301Z,95992.41
2018-11-03T10:57:46.797Z,95997.06
2018-11-03T11:00:22.187Z,95993.98
2018-11-03T11:02:56.263Z,95985.75
2018-11-03T11:05:30.472Z,95982.34
2018-11-03T11:08:04.553Z,95973.29
2018-11-03T11:10:38.761Z,95972.66
2018-11-03T11:13:24.696Z,95967.22
2018-11-03T11:15:55.619Z,95972.66
2018-11-03T11:18:24.706Z,95968.45
2018-11-03T11:20:54.591Z,95960.41
2018-11-03T11:23:23.889Z,95949.88
2018-11-03T11:25:52.962Z,95944.96
2018-11-03T11:28:22.425Z,95947.83
2018-11-03T11:30:51.552Z,95942.47
2018-11-03T11:33:20.643Z,95932.08
2018-11-03T11:35:49.831Z,95925.16
2018-11-03T11:38:19.147Z,95921.44
2018-11-03T11:40:48.329Z,95919.80
2018-11-03T11:43:17.523Z,95920.73
2018-11-03T11:45:46.790Z,95914.66
2018-11-03T11:48:16.034Z,95916.59
2018-11-03T11:50:45.157Z,95910.34
2018-11-03T11:53:14.575Z,95904.56
2018-11-03T11:55:43.876Z,95905.27
2018-11-03T11:58:13.023Z,95909.70
2018-11-03T12:00:42.386Z,95907.44
2018-11-03T12:03:11.561Z,95900.22
2018-11-03T12:05:40.737Z,95904.98
2018-11-03T12:08:09.865Z,95903.01
2018-11-03T12:10:38.998Z,95900.00
2018-11-03T12:13:08.137Z,95906.10
2018-11-03T12:15:37.291Z,95904.12
2018-11-03T12:18:07.361Z,95901.97
2018-11-03T12:20:36.646Z,95900.73
2018-11-03T12:23:05.938Z,95900.52
2018-11-03T12:25:35.157Z,95904.23
2018-11-03T12:28:04.282Z,95897.54
2018-11-03T12:30:33.959Z,95898.35
2018-11-03T12:33:03.131Z,95901.45
2018-11-03T12:35:32.046Z,95902.89
2018-11-03T12:38:01.124Z,95902.38
2018-11-03T12:40:30.236Z,95905.36
2018-11-03T12:42:59.321Z,95905.36
2018-11-03T12:45:28.358Z,95905.69
2018-11-03T12:47:57.965Z,95903.53
2018-11-03T12:50:27.042Z,95902.19
2018-11-03T12:52:56.203Z,95901.67
2018-11-03T12:55:25.494Z,95906.40
2018-11-03T12:57:54.945Z,95907.44
2018-11-03T13:00:24.011Z,95911.56
2018-11-03T13:02:53.231Z,95909.90
2018-11-03T13:05:22.410Z,95912.06
2018-11-03T13:07:51.565Z,95903.72
2018-11-03T13:10:20.711Z,95907.22
2018-11-03T13:12:49.938Z,95909.00
2018-11-03T13:15:19.227Z,95908.56
2018-11-03T13:17:48.510Z,95908.48
2018-11-03T13:20:17.600Z,95916.41
2018-11-03T13:22:46.728Z,95909.19
2018-11-03T13:25:15.813Z,95909.49
2018-11-03T13:27:44.915Z,95917.94
2018-11-03T13:30:15.082Z,95913.81
2018-11-03T13:32:44.525Z,95914.14
2018-11-03T13:35:14.518Z,95911.66
2018-11-03T13:37:43.744Z,95914.14
2018-11-03T13:40:13.984Z,95909.08
2018-11-03T13:42:43.759Z,95908.86
2018-11-03T13:45:13.013Z,95909.27
2018-11-03T13:47:42.353Z,95911.02
2018-11-03T13:50:16.715Z,95915.34
2018-11-03T13:52:47.023Z,95909.05
2018-11-03T13:55:16.153Z,95911.24
2018-11-03T13:57:46.120Z,95906.19
2018-11-03T14:00:17.530Z,95905.55
2018-11-03T14:02:47.680Z,95905.85
2018-11-03T14:05:16.902Z,95910.69
2018-11-03T14:07:46.022Z,95905.55
2018-11-03T14:10:16.419Z,95917.31
2018-11-03T14:12:46.203Z,95906.48
2018-11-03T14:15:16.696Z,95902.66
2018-11-03T14:17:45.906Z,95906.89
2018-11-03T14:20:15.907Z,95908.86
2018-11-03T14:22:45.652Z,95911.66
2018-11-03T14:25:16.403Z,95911.84
2018-11-03T14:27:46.374Z,95921.63
2018-11-03T14:30:15.614Z,95923.64
2018-11-03T14:32:44.990Z,95916.91
2018-11-03T14:35:14.857Z,95925.43
2018-11-03T14:37:44.252Z,95919.58
2018-11-03T14:40:14.848Z,95930.30
2018-11-03T14:42:44.797Z,95932.64
2018-11-03T14:45:14.989Z,95935.44
2018-11-03T14:47:44.173Z,95939.87
2018-11-03T14:50:13.266Z,95937.92
2018-11-03T14:52:43.249Z,95939.56
2018-11-03T14:55:13.160Z,95943.17
2018-11-03T14:57:42.829Z,95946.56
2018-11-03T15:00:13.362Z,95948.65
2018-11-03T15:02:42.555Z,95952.85
2018-11-03T15:05:12.409Z,95956.05
2018-11-03T15:07:41.761Z,95958.73
2018-11-03T15:10:11.621Z,95962.64
2018-11-03T15:12:41.426Z,95959.14
2018-11-03T15:15:12.003Z,95963.16
2018-11-03T15:17:41.205Z,95959.14
2018-11-03T15:20:11.292Z,95965.02
2018-11-03T15:22:40.917Z,95963.53
2018-11-03T15:25:10.580Z,95972.91
2018-11-03T15:27:40.231Z,95968.07
2018-11-03T15:30:10.726Z,95979.27
2018-11-03T15:32:40.229Z,95984.33
2018-11-03T15:35:10.010Z,95980.53
2018-11-03T15:37:39.439Z,95984.55
2018-11-03T15:40:10.062Z,95984.22
2018-11-03T15:42:39.098Z,95983.09
2018-11-03T15:45:10.816Z,95991.13
2018-11-03T15:47:40.027Z,95994.11
2018-11-03T15:50:09.183Z,95990.80
2018-11-03T15:52:38.311Z,95991.63
2018-11-03T15:55:07.597Z,95982.58
2018-11-03T15:57:36.878Z,95987.94
2018-11-03T16:00:08.483Z,95991.13
2018-11-03T16:02:37.650Z,95997.42
2018-11-03T16:05:07.133Z,95996.60
2018-11-03T16:07:36.305Z,96012.16
2018-11-03T16:10:06.299Z,96013.91
2018-11-03T16:12:35.454Z,96008.55
2018-11-03T16:15:04.955Z,96006.80
2018-11-03T16:17:33.954Z,96019.86
2018-11-03T16:20:03.366Z,96011.83
2018-11-03T16:22:32.479Z,96006.16
2018-11-03T16:25:01.561Z,96024.22
2018-11-03T16:27:30.749Z,96024.22
2018-11-03T16:29:59.909Z,96022.05
2018-11-03T16:32:29.236Z,96023.58
2018-11-03T16:34:58.271Z,96030.58
2018-11-03T16:37:27.354Z,96035.94
2018-11-03T16:39:56.409Z,96035.34
2018-11-03T16:42:25.818Z,96037.28
2018-11-03T16:44:55.245Z,96038.62
2018-11-03T16:47:24.409Z,96044.31
2018-11-03T16:49:53.524Z,96045.65
2018-11-03T16:52:22.724Z,96051.00
2018-11-03T16:54:51.931Z,96047.50
2018-11-03T16:57:21.047Z,96048.84
2018-11-03T16:59:50.147Z,96054.69
2018-11-03T17:02:19.406Z,96057.89
2018-11-03T17:04:48.716Z,96051.19
2018-11-03T17:07:18.033Z,96053.05
2018-11-03T17:09:47.086Z,96052.75
2018-11-03T17:12:16.235Z,96052.75
2018-11-03T17:14:45.376Z,96049.03
2018-11-03T17:17:14.528Z,96052.75
2018-11-03T17:19:43.889Z,96056.25
2018-11-03T17:22:13.042Z,96060.78
2018-11-03T17:24:42.094Z,96058.92
2018-11-03T17:27:11.196Z,96069.13
2018-11-03T17:29:40.415Z,96059.63
2018-11-03T17:32:09.521Z,96055.09
2018-11-03T17:34:38.582Z,96062.61
2018-11-03T17:37:08.083Z,96060.66
2018-11-03T17:39:37.195Z,96064.47
2018-11-03T17:42:06.597Z,96061.27
2018-11-03T17:44:35.682Z,96057.77
2018-11-03T17:47:04.942Z,96062.83
2018-11-03T17:49:34.230Z,96060.97
2018-11-03T17:52:03.714Z,96068.19
2018-11-03T17:54:32.869Z,96071.38
2018-11-03T17:57:02.282Z,96067.66
2018-11-03T17:59:31.450Z,96071.05
2018-11-03T18:02:00.784Z,96070.86
2018-11-03T18:04:29.915Z,96077.56
2018-11-03T18:06:59.066Z,96071.90
2018-11-03T18:09:28.317Z,96072.91
2018-11-03T18:11:57.422Z,96076.62
2018-11-03T18:14:26.599Z,96077.44
2018-11-03T18:16:55.730Z,96079.60
2018-11-03T18:19:24.893Z,96083.84
2018-11-03T18:21:54.195Z,96081.16
2018-11-03T18:24:23.885Z,96084.14
2018-11-03T18:26:53.010Z,96084.96
2018-11-03T18:29:22.102Z,96086.52
2018-11-03T18:31:51.590Z,96086.17
2018-11-03T18:34:20.730Z,96091.87
2018-11-03T18:36:49.809Z,96090.02
2018-11-03T18:39:18.917Z,96094.55
2018-11-03T18:41:48.213Z,96093.39
2018-11-03T18:44:17.371Z,96094.21
2018-11-03T18:46:46.568Z,96091.23
2018-11-03T18:49:15.653Z,96095.06
2018-11-03T18:51:44.799Z,96096.07
2018-11-03T18:54:13.873Z,96099.78
2018-11-03T18:56:42.986Z,96102.47
2018-11-03T18:59:12.049Z,96108.64
2018-11-03T19:01:41.206Z,96105.45
2018-11-03T19:04:11.226Z,96112.48
2018-11-03T19:06:40.537Z,96110.16
2018-11-03T19:09:10.051Z,96110.26
2018-11-03T19:11:39.202Z,96107.48
2018-11-03T19:14:08.449Z,96107.39
2018-11-03T19:16:37.578Z,96115.22
2018-11-03T19:19:06.873Z,96119.23
2018-11-03T19:21:36.041Z,96112.42
2018-11-03T19:24:05.288Z,96113.76
2018-11-03T19:26:34.533Z,96105.60
2018-11-03T19:29:04.182Z,96121.67
2018-11-03T19:31:33.418Z,96124.17
2018-11-03T19:34:02.526Z,96124.17
2018-11-03T19:36:31.616Z,96124.74
2018-11-03T19:39:00.614Z,96128.37
2018-11-03T19:41:29.721Z,96127.12
2018-11-03T19:43:58.839Z,96126.60
2018-11-03T19:46:28.001Z,96130.44
2018-11-03T19:48:57.503Z,96131.44
2018-11-03T19:51:26.591Z,96131.05
2018-11-03T19:53:55.816Z,96134.55
2018-11-03T19:56:25.005Z,96126.42
2018-11-03T19:58:54.321Z,96124.56
2018-11-03T20:01:23.603Z,96131.44
2018-11-03T20:03:52.685Z,96138.78
2018-11-03T20:06:21.925Z,96137.50
2018-11-03T20:08:51.078Z,96146.17
2018-11-03T20:11:20.138Z,96141.84
2018-11-03T20:13:49.303Z,96144.70
2018-11-03T20:16:19.227Z,96143.19
2018-11-03T20:18:48.476Z,96145.44
2018-11-03T20:21:17.678Z,96144.92
2018-11-03T20:23:46.905Z,96141.42
2018-11-03T20:26:16.127Z,96143.37
2018-11-03T20:28:45.368Z,96141.33
2018-11-03T20:31:14.489Z,96140.69
2018-11-03T20:33:43.981Z,96139.88
2018-11-03T20:36:13.089Z,96139.88
2018-11-03T20:38:42.286Z,96138.02
2018-11-03T20:41:11.486Z,96146.05
2018-11-03T20:43:40.593Z,96142.94
2018-11-03T20:46:09.693Z,96137.89
2018-11-03T20:48:38.859Z,96135.42
2018-11-03T20:51:10.135Z,96133.05
2018-11-03T20:53:39.888Z,96139.02
2018-11-03T20:56:09.525Z,96136.94
2018-11-03T20:58:38.924Z,96135.61
2018-11-03T21:01:08.173Z,96132.19
2018-11-03T21:03:37.433Z,96134.78
2018-11-03T21:06:06.674Z,96128.78
2018-11-03T21:08:35.966Z,96128.78
2018-11-03T21:11:04.977Z,96132.59
2018-11-03T21:13:34.172Z,96136.33
2018-11-03T21:16:03.439Z,96126.33
2018-11-03T21:18:32.755Z,96126.75
2018-11-03T21:21:01.825Z,96133.66
2018-11-03T21:23:31.170Z,96135.69
2018-11-03T21:26:00.149Z,96135.69
2018-11-03T21:28:29.236Z,96132.71
2018-11-03T21:30:58.429Z,96138.95
2018-11-03T21:33:27.520Z,96129.00
2018-11-03T21:35:56.793Z,96131.16
2018-11-03T21:38:26.384Z,96126.72
2018-11-03T21:40:55.933Z,96121.66
2018-11-03T21:43:25.453Z,96127.27
2018-11-03T21:45:54.699Z,96118.16
2018-11-03T21:48:23.764Z,96116.64
2018-11-03T21:50:52.827Z,96116.95
2018-11-03T21:53:21.943Z,96115.37
2018-11-03T21:55:51.119Z,96109.62
2018-11-03T21:58:20.676Z,96110.65
2018-11-03T22:00:49.847Z,96110.65
2018-11-03T22:03:18.933Z,96105.59
2018-11-03T22:05:47.997Z,96097.66
2018-11-03T22:08:17.198Z,96102.92
2018-11-03T22:10:46.327Z,96102.28
2018-11-03T22:13:15.403Z,96098.91
2018-11-03T22:15:44.532Z,96092.48
2018-11-03T22:18:14.010Z,96094.46
2018-11-03T22:20:43.179Z,96089.93
2018-11-03T22:23:12.453Z,96088.89
2018-11-03T22:25:41.567Z,96088.53
2018-11-03T22:28:10.845Z,96085.52
2018-11-03T22:30:40.006Z,96086.03
2018-11-03T22:33:09.104Z,96086.55
2018-11-03T22:35:38.221Z,96084.30
2018-11-03T22:38:07.334Z,96087.83
2018-11-03T22:40:36.756Z,96090.32
2018-11-03T22:43:06.086Z,96090.45
2018-11-03T22:45:35.573Z,96083.54
2018-11-03T22:48:04.738Z,96082.47
2018-11-03T22:50:33.871Z,96082.02
2018-11-03T22:53:03.087Z,96085.61
2018-11-03T22:55:32.261Z,96075.90
2018-11-03T22:58:01.696Z,96069.84
2018-11-03T23:00:30.938Z,96069.15
2018-11-03T23:03:00.129Z,96070.88
2018-11-03T23:05:29.474Z,96060.87
2018-11-03T23:07:58.635Z,96066.14
2018-11-03T23:10:27.815Z,96062.52
2018-11-03T23:12:56.819Z,96057.25
2018-11-03T23:15:25.973Z,96055.39
2018-11-03T23:17:55.102Z,96052.84
2018-11-03T23:20:24.209Z,96053.75
2018-11-03T23:22:53.339Z,96052.30
2018-11-03T23:25:22.619Z,96054.88
2018-11-03T23:27:52.258Z,96054.88
2018-11-03T23:30:21.548Z,96057.31
2018-11-03T23:32:50.998Z,96049.09
2018-11-03T23:35:20.222Z,96054.02
2018-11-03T23:37:49.370Z,96053.81
2018-11-03T23:40:18.515Z,96053.20
2018-11-03T23:42:47.652Z,96057.49
2018-11-03T23:45:16.845Z,96055.88
2018-11-03T23:47:45.999Z,96058.04
2018-11-03T23:50:15.097Z,96062.76
2018-11-03T23:52:45.278Z,96055.42
2018-11-03T23:55:14.441Z,96057.01
2018-11-03T23:57:43.537Z,96055.76
